Time;durP1;ratioP1;P1;durP2;ratioP2;P2;SDS_P1;SDS_P2;PMS_P1;PMS_P2;Temp;Humidity;BMP_temperature;BMP_pressure;BME280_temperature;BME280_humidity;BME280_pressure;Samples;Min_cycle;Max_cycle;Signal;HPM_P1;HPM_P2
2022/06/18 00:00:21;;;;;;;2.50;2.25;;;;;;;;;;5134452;27;20403;-87
2022/06/18 00:02:47;;;;;;;2.53;2.03;;;;;;;;;;5133936;27;20027;-86
2022/06/18 00:05:15;;;;;;;2.08;1.88;;;;;;;;;;5117333;27;20023;-85
2022/06/18 00:07:45;;;;;;;2.28;2.08;;;;;;;;;;5136174;27;20027;-86
2022/06/18 00:10:18;;;;;;;2.15;1.95;;;;;;;;;;5136046;27;20649;-84
2022/06/18 00:15:32;;;;;;;2.33;2.13;;;;;;;;;;5135907;27;20072;-85
2022/06/18 00:17:58;;;;;;;2.73;1.80;;;;;;;;;;5133446;27;20080;-84
2022/06/18 00:20:27;;;;;;;2.70;1.90;;;;;;;;;;5117097;27;20031;-85
2022/06/18 00:22:58;;;;;;;2.38;2.00;;;;;;;;;;5134644;27;20035;-86
2022/06/18 00:25:34;;;;;;;2.08;1.83;;;;;;;;;;5135795;27;20031;-85
2022/06/18 00:28:03;;;;;;;2.17;1.98;;;;;;;;;;5116985;27;20031;-85
2022/06/18 00:30:30;;;;;;;2.08;1.85;;;;;;;;;;5133826;27;20079;-85
2022/06/18 00:32:56;;;;;;;2.97;1.90;;;;;;;;;;5135295;27;20019;-84
2022/06/18 00:35:21;;;;;;;1.92;1.73;;;;;;;;;;5134683;27;20034;-85
2022/06/18 00:37:54;;;;;;;1.92;1.80;;;;;;;;;;5135009;27;20050;-84
2022/06/18 00:40:24;;;;;;;2.65;2.08;;;;;;;;;;5116455;27;20050;-85
2022/06/18 00:42:50;;;;;;;1.80;1.70;;;;;;;;;;5116585;27;20080;-84
2022/06/18 00:45:21;;;;;;;2.40;1.77;;;;;;;;;;5116627;27;20127;-84
2022/06/18 00:48:11;;;;;;;1.95;1.85;;;;;;;;;;5134671;27;20030;-86
2022/06/18 00:50:49;;;;;;;2.00;1.80;;;;;;;;;;5134137;27;20344;-85
2022/06/18 00:53:27;;;;;;;2.00;1.80;;;;;;;;;;5135396;27;20379;-84
2022/06/18 00:56:06;;;;;;;2.05;1.83;;;;;;;;;;5131480;27;20031;-85
2022/06/18 00:58:43;;;;;;;2.10;1.90;;;;;;;;;;5134941;27;20035;-84
2022/06/18 01:01:16;;;;;;;2.28;1.95;;;;;;;;;;5116168;27;20026;-83
2022/06/18 01:03:44;;;;;;;1.92;1.73;;;;;;;;;;5133475;27;20031;-87
2022/06/18 01:06:20;;;;;;;2.30;2.00;;;;;;;;;;5134570;27;20034;-85
2022/06/18 01:08:48;;;;;;;1.98;1.88;;;;;;;;;;5133246;27;20407;-85
2022/06/18 01:11:22;;;;;;;2.13;1.92;;;;;;;;;;5116459;27;20023;-85
2022/06/18 01:13:48;;;;;;;1.70;1.50;;;;;;;;;;5134678;27;20027;-84
2022/06/18 01:16:16;;;;;;;1.50;1.40;;;;;;;;;;5115868;27;20471;-84
2022/06/18 01:18:43;;;;;;;1.67;1.45;;;;;;;;;;5134541;27;20027;-84
2022/06/18 01:21:27;;;;;;;1.60;1.50;;;;;;;;;;5134325;27;20023;-85
2022/06/18 01:24:10;;;;;;;1.70;1.60;;;;;;;;;;5115852;27;20575;-85
2022/06/18 01:26:36;;;;;;;1.60;1.50;;;;;;;;;;5132506;27;20035;-84
2022/06/18 01:29:02;;;;;;;2.30;1.58;;;;;;;;;;5134343;27;20034;-84
2022/06/18 01:31:28;;;;;;;2.13;1.50;;;;;;;;;;5134141;27;20042;-84
2022/06/18 01:33:54;;;;;;;1.50;1.40;;;;;;;;;;5115786;27;20026;-86
2022/06/18 01:36:19;;;;;;;1.65;1.55;;;;;;;;;;5134364;27;20079;-84
2022/06/18 01:38:46;;;;;;;1.75;1.48;;;;;;;;;;5115520;27;20049;-85
2022/06/18 01:44:35;;;;;;;1.50;1.27;;;;;;;;;;5133967;27;20037;-84
2022/06/18 01:47:25;;;;;;;1.50;1.40;;;;;;;;;;5117343;27;20035;-85
2022/06/18 01:50:01;;;;;;;1.48;1.10;;;;;;;;;;5113474;27;20023;-85
2022/06/18 01:52:35;;;;;;;2.58;1.60;;;;;;;;;;5115445;27;20030;-85
2022/06/18 01:55:07;;;;;;;1.55;1.33;;;;;;;;;;5115364;27;20462;-85
2022/06/18 01:57:45;;;;;;;2.47;1.60;;;;;;;;;;5127522;27;20102;-85
2022/06/18 02:00:16;;;;;;;1.40;1.30;;;;;;;;;;5133424;27;20027;-86
2022/06/18 02:02:44;;;;;;;1.40;1.30;;;;;;;;;;5115471;27;20027;-84
2022/06/18 02:05:10;;;;;;;1.15;1.10;;;;;;;;;;5114864;27;20019;-84
2022/06/18 02:07:36;;;;;;;1.60;1.10;;;;;;;;;;5126021;27;20039;-84
2022/06/18 02:10:07;;;;;;;2.72;1.30;;;;;;;;;;5133559;27;20023;-83
2022/06/18 02:12:37;;;;;;;1.50;1.30;;;;;;;;;;5133264;27;20023;-84
2022/06/18 02:15:06;;;;;;;2.00;1.48;;;;;;;;;;5133438;27;20019;-84
2022/06/18 02:17:32;;;;;;;4.23;1.47;;;;;;;;;;5131731;27;20038;-85
2022/06/18 02:20:16;;;;;;;1.60;1.25;;;;;;;;;;5133317;27;20023;-84
2022/06/18 02:22:46;;;;;;;2.47;1.50;;;;;;;;;;5114869;27;20023;-85
2022/06/18 02:25:16;;;;;;;1.48;1.30;;;;;;;;;;5114875;27;20066;-86
2022/06/18 02:27:42;;;;;;;1.40;1.30;;;;;;;;;;5132843;27;20029;-84
2022/06/18 02:30:24;;;;;;;1.92;1.30;;;;;;;;;;5133059;27;20102;-86
2022/06/18 02:32:52;;;;;;;1.40;1.30;;;;;;;;;;5114487;27;20023;-83
2022/06/18 02:35:17;;;;;;;1.77;1.48;;;;;;;;;;5129619;27;20027;-84
2022/06/18 02:37:44;;;;;;;1.55;1.27;;;;;;;;;;5132708;27;20042;-83
2022/06/18 02:40:25;;;;;;;1.77;1.50;;;;;;;;;;5114943;27;20489;-86
2022/06/18 02:42:54;;;;;;;2.28;1.45;;;;;;;;;;5132710;27;20058;-85
2022/06/18 02:45:21;;;;;;;2.60;1.40;;;;;;;;;;5133235;27;20027;-86
2022/06/18 02:47:47;;;;;;;1.30;1.20;;;;;;;;;;5114338;27;20064;-84
2022/06/18 02:50:15;;;;;;;1.73;1.30;;;;;;;;;;5130080;27;20023;-87
2022/06/18 02:52:53;;;;;;;1.50;1.40;;;;;;;;;;5129953;27;20088;-85
2022/06/18 02:55:24;;;;;;;1.98;1.30;;;;;;;;;;5132760;27;20499;-84
2022/06/18 02:57:52;;;;;;;1.52;1.40;;;;;;;;;;5132469;27;20490;-82
2022/06/18 03:00:18;;;;;;;1.38;1.23;;;;;;;;;;5132467;27;20023;-86
2022/06/18 03:02:43;;;;;;;1.50;1.40;;;;;;;;;;5114119;27;20035;-84
2022/06/18 03:05:21;;;;;;;1.80;1.40;;;;;;;;;;5132522;27;20050;-82
2022/06/18 03:07:47;;;;;;;1.20;1.10;;;;;;;;;;5131614;27;20030;-84
2022/06/18 03:12:57;;;;;;;1.38;1.20;;;;;;;;;;5131268;28;20033;-82
2022/06/18 03:15:23;;;;;;;1.20;1.10;;;;;;;;;;5113881;28;20031;-83
2022/06/18 03:17:50;;;;;;;1.13;0.93;;;;;;;;;;5132544;27;20080;-83
2022/06/18 03:20:19;;;;;;;1.08;0.98;;;;;;;;;;5136451;27;20076;-83
2022/06/18 03:22:46;;;;;;;1.13;1.02;;;;;;;;;;5117825;27;20479;-85
2022/06/18 03:25:11;;;;;;;0.82;0.82;;;;;;;;;;5136337;27;20041;-85
2022/06/18 03:27:37;;;;;;;1.35;1.17;;;;;;;;;;5118167;27;20019;-84
2022/06/18 03:30:04;;;;;;;1.00;0.90;;;;;;;;;;5136288;27;20023;-84
2022/06/18 03:32:31;;;;;;;1.02;0.90;;;;;;;;;;5117470;27;20030;-84
2022/06/18 03:34:56;;;;;;;1.10;1.00;;;;;;;;;;5117874;27;20076;-85
2022/06/18 03:37:22;;;;;;;1.95;1.00;;;;;;;;;;5136259;27;20039;-85
2022/06/18 03:39:47;;;;;;;1.42;0.93;;;;;;;;;;5117987;27;20170;-86
2022/06/18 03:42:13;;;;;;;1.35;1.20;;;;;;;;;;5117965;27;20106;-85
2022/06/18 03:44:38;;;;;;;1.13;1.02;;;;;;;;;;5136692;27;20027;-87
2022/06/18 03:47:05;;;;;;;1.27;1.10;;;;;;;;;;5136264;27;20474;-86
2022/06/18 03:49:32;;;;;;;1.88;1.17;;;;;;;;;;5117461;27;20171;-86
2022/06/18 03:52:01;;;;;;;1.73;1.25;;;;;;;;;;5117739;27;20040;-86
2022/06/18 03:54:26;;;;;;;1.83;1.13;;;;;;;;;;5136401;27;20463;-87
2022/06/18 03:56:52;;;;;;;1.45;1.20;;;;;;;;;;5117835;27;20049;-84
2022/06/18 03:59:18;;;;;;;1.33;1.17;;;;;;;;;;5136341;27;20084;-84
2022/06/18 04:01:43;;;;;;;1.35;1.25;;;;;;;;;;5136031;27;20034;-87
2022/06/18 04:04:11;;;;;;;1.15;1.08;;;;;;;;;;5117903;27;20047;-84
2022/06/18 04:06:40;;;;;;;3.17;1.30;;;;;;;;;;5134498;27;20034;-86
2022/06/18 04:09:07;;;;;;;1.17;1.08;;;;;;;;;;5117679;27;20029;-85
2022/06/18 04:11:32;;;;;;;1.30;1.20;;;;;;;;;;5116827;27;20448;-85
2022/06/18 04:13:59;;;;;;;1.27;1.17;;;;;;;;;;5117485;27;20110;-84
2022/06/18 04:16:25;;;;;;;2.20;1.10;;;;;;;;;;5116196;27;20038;-84
2022/06/18 04:18:51;;;;;;;1.10;1.05;;;;;;;;;;5136022;27;20027;-84
2022/06/18 04:21:17;;;;;;;1.45;1.10;;;;;;;;;;5136362;27;20046;-85
2022/06/18 04:23:43;;;;;;;1.20;1.10;;;;;;;;;;5117736;27;20023;-86
2022/06/18 04:26:10;;;;;;;1.40;1.30;;;;;;;;;;5116157;27;20030;-86
2022/06/18 04:28:35;;;;;;;1.30;1.20;;;;;;;;;;5113812;27;20030;-85
2022/06/18 04:31:01;;;;;;;1.95;1.40;;;;;;;;;;5135065;27;20386;-86
2022/06/18 04:33:27;;;;;;;1.42;1.25;;;;;;;;;;5135635;27;20015;-86
2022/06/18 04:35:57;;;;;;;1.35;1.20;;;;;;;;;;5117171;27;20029;-84
2022/06/18 04:38:24;;;;;;;1.40;1.30;;;;;;;;;;5135107;27;20388;-86
2022/06/18 04:40:50;;;;;;;1.48;1.30;;;;;;;;;;5135677;27;20142;-87
2022/06/18 04:43:15;;;;;;;1.40;1.20;;;;;;;;;;5135257;27;20515;-86
2022/06/18 04:45:41;;;;;;;1.48;1.17;;;;;;;;;;5117164;27;20030;-85
2022/06/18 04:48:07;;;;;;;1.30;1.17;;;;;;;;;;5116587;27;20035;-86
2022/06/18 04:50:36;;;;;;;1.30;1.10;;;;;;;;;;5148652;27;20031;-87
2022/06/18 04:53:03;;;;;;;1.10;1.02;;;;;;;;;;5135487;27;20080;-86
2022/06/18 04:55:29;;;;;;;1.20;0.98;;;;;;;;;;5135403;27;20102;-86
2022/06/18 04:57:54;;;;;;;0.90;0.90;;;;;;;;;;5116607;27;20054;-86
2022/06/18 05:00:20;;;;;;;1.02;1.00;;;;;;;;;;5116633;27;20100;-87
2022/06/18 05:02:46;;;;;;;1.70;1.23;;;;;;;;;;5116282;27;20027;-85
2022/06/18 05:05:18;;;;;;;1.20;1.10;;;;;;;;;;5134309;27;20073;-85
2022/06/18 05:07:44;;;;;;;1.33;1.23;;;;;;;;;;5132162;27;20019;-85
2022/06/18 05:10:10;;;;;;;1.27;1.10;;;;;;;;;;5134821;27;20127;-86
2022/06/18 05:12:36;;;;;;;0.80;0.80;;;;;;;;;;5134886;27;20055;-85
2022/06/18 05:15:01;;;;;;;1.02;1.02;;;;;;;;;;5134862;27;20097;-85
2022/06/18 05:17:31;;;;;;;1.55;1.10;;;;;;;;;;5134474;27;20019;-85
2022/06/18 05:19:56;;;;;;;1.20;1.10;;;;;;;;;;5134267;27;20075;-85
2022/06/18 05:22:22;;;;;;;1.05;0.95;;;;;;;;;;5115595;27;20043;-85
2022/06/18 05:24:47;;;;;;;4.25;2.83;;;;;;;;;;5131402;27;20065;-85
2022/06/18 05:27:25;;;;;;;1.80;1.20;;;;;;;;;;5134509;27;20023;-85
2022/06/18 05:29:51;;;;;;;2.92;2.63;;;;;;;;;;5112955;27;20102;-87
2022/06/18 05:32:17;;;;;;;1.45;1.15;;;;;;;;;;5133939;27;20172;-85
2022/06/18 05:34:42;;;;;;;2.17;1.30;;;;;;;;;;5133298;27;20030;-86
2022/06/18 05:37:20;;;;;;;1.48;1.00;;;;;;;;;;5132891;27;21265;-85
2022/06/18 05:39:45;;;;;;;1.10;1.00;;;;;;;;;;5132704;27;20027;-88
2022/06/18 05:42:11;;;;;;;1.27;1.13;;;;;;;;;;5132986;27;20033;-85
2022/06/18 05:44:37;;;;;;;1.23;1.13;;;;;;;;;;5111963;27;20095;-85
2022/06/18 05:47:12;;;;;;;1.20;1.10;;;;;;;;;;5114718;27;20026;-86
2022/06/18 05:49:38;;;;;;;1.00;1.00;;;;;;;;;;5115757;27;20477;-88
2022/06/18 05:52:04;;;;;;;1.23;1.10;;;;;;;;;;5114162;27;20463;-87
2022/06/18 05:54:29;;;;;;;1.08;0.98;;;;;;;;;;5114231;27;20026;-88
2022/06/18 05:56:54;;;;;;;1.30;1.10;;;;;;;;;;5132933;27;20076;-86
2022/06/18 05:59:20;;;;;;;1.05;1.02;;;;;;;;;;5133439;27;21388;-87
2022/06/18 06:01:45;;;;;;;1.30;1.20;;;;;;;;;;5132715;27;20043;-84
2022/06/18 06:04:11;;;;;;;1.90;1.50;;;;;;;;;;5114532;27;20034;-89
2022/06/18 06:06:36;;;;;;;1.40;1.30;;;;;;;;;;5112856;27;20102;-86
2022/06/18 06:09:03;;;;;;;1.27;1.17;;;;;;;;;;5131088;27;20027;-87
2022/06/18 06:11:28;;;;;;;2.78;1.20;;;;;;;;;;5115220;27;20050;-86
2022/06/18 06:13:54;;;;;;;1.40;1.30;;;;;;;;;;5113053;27;20019;-85
2022/06/18 06:16:20;;;;;;;1.45;1.20;;;;;;;;;;5133420;27;20015;-85
2022/06/18 06:18:46;;;;;;;2.70;1.20;;;;;;;;;;5133804;27;20534;-88
2022/06/18 06:21:12;;;;;;;1.63;1.50;;;;;;;;;;5131947;27;20075;-86
2022/06/18 06:23:37;;;;;;;1.50;1.33;;;;;;;;;;5133729;27;20122;-86
2022/06/18 06:26:03;;;;;;;1.40;1.30;;;;;;;;;;5114663;27;20015;-88
2022/06/18 06:28:30;;;;;;;1.20;1.10;;;;;;;;;;5132224;27;20023;-86
2022/06/18 06:30:56;;;;;;;1.50;1.40;;;;;;;;;;5131513;27;20031;-86
2022/06/18 06:33:22;;;;;;;1.50;1.40;;;;;;;;;;5114862;27;20041;-85
2022/06/18 06:35:48;;;;;;;1.50;1.33;;;;;;;;;;5133323;27;20019;-86
2022/06/18 06:38:15;;;;;;;1.45;1.35;;;;;;;;;;5114505;27;20619;-88
2022/06/18 06:40:42;;;;;;;1.50;1.40;;;;;;;;;;5115004;27;20073;-87
2022/06/18 06:43:12;;;;;;;1.52;1.42;;;;;;;;;;5114765;27;20040;-85
2022/06/18 06:45:37;;;;;;;1.42;1.20;;;;;;;;;;5133290;27;20031;-87
2022/06/18 06:48:04;;;;;;;1.40;1.30;;;;;;;;;;5130226;27;20499;-88
2022/06/18 06:50:30;;;;;;;2.60;1.40;;;;;;;;;;5112756;27;20058;-86
2022/06/18 06:52:56;;;;;;;1.65;1.30;;;;;;;;;;5132925;27;20100;-86
2022/06/18 06:58:29;;;;;;;1.38;1.27;;;;;;;;;;5131529;27;20117;-90
2022/06/18 07:00:57;;;;;;;1.30;1.20;;;;;;;;;;5124164;27;20023;-83
2022/06/18 07:03:31;;;;;;;1.15;1.05;;;;;;;;;;5114724;28;20091;-86
2022/06/18 07:05:59;;;;;;;1.35;1.20;;;;;;;;;;5129037;27;20382;-85
2022/06/18 07:08:25;;;;;;;1.38;1.27;;;;;;;;;;5114819;28;20047;-84
2022/06/18 07:10:51;;;;;;;1.30;1.20;;;;;;;;;;5132850;27;20054;-85
2022/06/18 07:13:18;;;;;;;1.27;1.00;;;;;;;;;;5132954;28;20063;-87
2022/06/18 07:15:44;;;;;;;1.30;1.20;;;;;;;;;;5132645;28;20026;-84
2022/06/18 07:18:18;;;;;;;1.67;1.20;;;;;;;;;;5130578;28;20490;-85
2022/06/18 07:20:44;;;;;;;1.25;1.15;;;;;;;;;;5114004;28;20118;-85
2022/06/18 07:23:11;;;;;;;1.65;1.10;;;;;;;;;;5132681;28;20081;-84
2022/06/18 07:25:37;;;;;;;1.10;1.00;;;;;;;;;;5113817;28;20077;-85
2022/06/18 07:28:03;;;;;;;1.27;1.17;;;;;;;;;;5132477;28;20026;-86
2022/06/18 07:30:28;;;;;;;1.30;1.20;;;;;;;;;;5132628;28;20568;-86
2022/06/18 07:32:54;;;;;;;1.13;0.95;;;;;;;;;;5114207;28;20106;-86
2022/06/18 07:35:25;;;;;;;1.17;1.08;;;;;;;;;;5132513;28;20030;-86
2022/06/18 07:37:51;;;;;;;1.23;0.90;;;;;;;;;;5130476;28;20447;-87
2022/06/18 07:40:17;;;;;;;1.48;1.10;;;;;;;;;;5132394;28;20159;-86
2022/06/18 07:42:47;;;;;;;1.25;0.90;;;;;;;;;;5113839;28;20014;-85
2022/06/18 07:45:19;;;;;;;0.93;0.90;;;;;;;;;;5132328;28;20072;-86
2022/06/18 07:47:45;;;;;;;1.10;1.00;;;;;;;;;;5114259;28;20029;-89
2022/06/18 07:50:11;;;;;;;1.80;1.27;;;;;;;;;;5132418;28;20093;-86
2022/06/18 07:52:37;;;;;;;1.35;1.17;;;;;;;;;;5132203;28;20015;-87
2022/06/18 07:55:04;;;;;;;1.23;1.08;;;;;;;;;;5132544;28;20146;-87
2022/06/18 07:57:29;;;;;;;1.25;1.05;;;;;;;;;;5132167;28;20027;-86
2022/06/18 07:59:55;;;;;;;1.00;1.00;;;;;;;;;;5132344;28;20023;-86
2022/06/18 08:02:21;;;;;;;1.77;1.00;;;;;;;;;;5113512;28;20023;-86
2022/06/18 08:04:46;;;;;;;1.25;0.95;;;;;;;;;;5133811;27;20440;-85
2022/06/18 08:07:11;;;;;;;0.95;0.95;;;;;;;;;;5136179;27;20035;-84
2022/06/18 08:09:41;;;;;;;1.58;1.00;;;;;;;;;;5136558;27;20031;-86
2022/06/18 08:12:07;;;;;;;1.00;0.90;;;;;;;;;;5117514;27;20421;-85
2022/06/18 08:14:32;;;;;;;1.95;1.08;;;;;;;;;;5135931;27;20075;-85
2022/06/18 08:16:58;;;;;;;0.88;0.88;;;;;;;;;;5135883;27;20030;-86
2022/06/18 08:19:24;;;;;;;1.10;1.00;;;;;;;;;;5117136;27;20023;-86
2022/06/18 08:21:50;;;;;;;1.02;0.85;;;;;;;;;;5135923;27;20030;-84
2022/06/18 08:24:19;;;;;;;1.02;1.00;;;;;;;;;;5131918;27;20026;-87
2022/06/18 08:26:45;;;;;;;1.00;1.00;;;;;;;;;;5131792;27;20023;-84
2022/06/18 08:29:14;;;;;;;2.00;1.00;;;;;;;;;;5116896;27;20027;-84
2022/06/18 08:31:40;;;;;;;1.17;1.08;;;;;;;;;;5117222;27;20421;-83
2022/06/18 08:34:05;;;;;;;1.42;1.00;;;;;;;;;;5134153;27;20026;-86
2022/06/18 08:36:39;;;;;;;1.58;0.90;;;;;;;;;;5135763;27;20019;-84
2022/06/18 08:39:08;;;;;;;0.80;0.80;;;;;;;;;;5134646;27;20039;-85
2022/06/18 08:41:58;;;;;;;1.60;0.90;;;;;;;;;;5115842;27;20486;-85
2022/06/18 08:44:34;;;;;;;0.85;0.82;;;;;;;;;;5134339;27;20034;-86
2022/06/18 08:47:56;;;;;;;1.30;1.20;;;;;;;;;;5134985;27;20475;-88
2022/06/18 08:50:46;;;;;;;1.10;1.00;;;;;;;;;;5031313;28;20204;-83
2022/06/18 08:53:18;;;;;;;0.80;0.80;;;;;;;;;;5134893;27;20027;-85
2022/06/18 08:55:55;;;;;;;0.77;0.77;;;;;;;;;;5111349;27;20432;-85
2022/06/18 08:58:21;;;;;;;1.00;0.80;;;;;;;;;;5130062;27;20027;-86
2022/06/18 09:01:23;;;;;;;1.00;0.90;;;;;;;;;;5115063;27;20023;-86
2022/06/18 09:04:06;;;;;;;1.10;1.00;;;;;;;;;;5134549;27;20451;-85
2022/06/18 09:07:09;;;;;;;1.30;0.82;;;;;;;;;;5114506;27;20023;-86
2022/06/18 09:09:53;;;;;;;0.80;0.80;;;;;;;;;;5134502;27;20034;-85
2022/06/18 09:12:44;;;;;;;1.20;0.93;;;;;;;;;;5132288;27;20027;-85
2022/06/18 09:15:41;;;;;;;0.88;0.75;;;;;;;;;;5111822;27;20023;-83
2022/06/18 09:18:17;;;;;;;0.85;0.85;;;;;;;;;;5116521;27;20078;-88
2022/06/18 09:20:51;;;;;;;1.13;1.00;;;;;;;;;;5131004;27;20231;-84
2022/06/18 09:23:27;;;;;;;0.77;0.77;;;;;;;;;;5129214;27;20058;-87
2022/06/18 09:25:55;;;;;;;1.27;1.00;;;;;;;;;;5132985;27;20031;-85
2022/06/18 09:28:31;;;;;;;0.70;0.70;;;;;;;;;;5115368;27;20031;-84
2022/06/18 09:31:24;;;;;;;1.00;0.90;;;;;;;;;;5134268;27;20086;-84
2022/06/18 09:33:57;;;;;;;2.45;0.70;;;;;;;;;;5130695;27;20015;-86
2022/06/18 09:36:35;;;;;;;0.80;0.80;;;;;;;;;;5133458;27;20056;-86
2022/06/18 09:39:17;;;;;;;0.90;0.90;;;;;;;;;;5113066;27;20043;-87
2022/06/18 09:42:06;;;;;;;0.80;0.80;;;;;;;;;;5131332;27;20411;-91
2022/06/18 09:44:53;;;;;;;1.80;1.00;;;;;;;;;;5132896;27;20431;-86
2022/06/18 09:47:29;;;;;;;2.70;0.90;;;;;;;;;;5131476;27;20406;-87
2022/06/18 09:49:54;;;;;;;1.10;1.00;;;;;;;;;;5132555;27;20030;-89
2022/06/18 09:52:34;;;;;;;0.95;0.82;;;;;;;;;;5131078;27;20023;-86
2022/06/18 09:55:13;;;;;;;0.75;0.73;;;;;;;;;;5132914;27;20034;-88
2022/06/18 09:57:43;;;;;;;1.42;0.80;;;;;;;;;;5132624;27;20417;-85
2022/06/18 10:00:11;;;;;;;;;;;;;;;;;;5133850;27;20031;-86
2022/06/18 10:02:43;;;;;;;1.02;0.93;;;;;;;;;;5133542;27;19911;-85
2022/06/18 10:08:01;;;;;;;1.25;0.90;;;;;;;;;;5134556;27;20104;-86
2022/06/18 10:10:28;;;;;;;0.80;0.70;;;;;;;;;;5130442;27;20094;-86
2022/06/18 10:12:58;;;;;;;1.52;0.80;;;;;;;;;;5131405;27;20319;-87
2022/06/18 10:15:25;;;;;;;1.00;1.00;;;;;;;;;;5113940;27;20019;-86
2022/06/18 10:18:05;;;;;;;1.48;0.80;;;;;;;;;;5133580;27;20567;-85
2022/06/18 10:20:44;;;;;;;0.68;0.68;;;;;;;;;;5110570;27;20030;-86
2022/06/18 10:23:36;;;;;;;1.15;0.90;;;;;;;;;;5115190;27;20134;-85
2022/06/18 10:26:07;;;;;;;1.38;0.95;;;;;;;;;;5109503;27;20035;-86
2022/06/18 10:29:17;;;;;;;0.77;0.77;;;;;;;;;;5132007;27;20558;-86
2022/06/18 10:31:52;;;;;;;1.02;0.90;;;;;;;;;;5121730;27;20372;-88
2022/06/18 10:34:32;;;;;;;4.63;1.00;;;;;;;;;;5115018;27;20031;-86
2022/06/18 10:37:21;;;;;;;0.80;0.80;;;;;;;;;;5132867;27;20030;-86
2022/06/18 10:39:55;;;;;;;1.15;0.90;;;;;;;;;;5129083;27;20015;-88
2022/06/18 10:42:42;;;;;;;0.80;0.80;;;;;;;;;;5127947;27;20023;-85
2022/06/18 10:45:35;;;;;;;0.85;0.85;;;;;;;;;;5132381;27;20023;-87
2022/06/18 10:48:01;;;;;;;3.42;0.95;;;;;;;;;;5128724;27;20106;-88
2022/06/18 10:50:29;;;;;;;1.10;0.95;;;;;;;;;;5111340;27;20438;-88
2022/06/18 10:53:06;;;;;;;1.25;1.00;;;;;;;;;;5133028;27;20379;-87
2022/06/18 10:55:32;;;;;;;1.30;0.98;;;;;;;;;;5132254;27;20011;-86
2022/06/18 10:58:10;;;;;;;1.20;1.10;;;;;;;;;;5114243;27;20482;-85
2022/06/18 11:00:37;;;;;;;1.20;1.10;;;;;;;;;;5132896;27;20379;-88
2022/06/18 11:03:14;;;;;;;1.05;1.00;;;;;;;;;;5130883;27;20109;-84
2022/06/18 11:05:45;;;;;;;1.05;1.02;;;;;;;;;;5113888;27;20034;-85
2022/06/18 11:08:24;;;;;;;1.33;1.20;;;;;;;;;;5113126;28;20027;-86
2022/06/18 11:11:01;;;;;;;1.60;1.30;;;;;;;;;;5128974;27;20381;-86
2022/06/18 11:13:30;;;;;;;1.90;1.25;;;;;;;;;;5132826;27;20493;-85
2022/06/18 11:16:15;;;;;;;1.50;1.40;;;;;;;;;;5129423;28;20080;-88
2022/06/18 11:18:59;;;;;;;1.65;1.40;;;;;;;;;;5112271;28;20027;-85
2022/06/18 11:21:34;;;;;;;2.67;2.03;;;;;;;;;;5130669;28;20497;-81
2022/06/18 11:24:18;;;;;;;1.25;1.05;;;;;;;;;;5132581;28;20024;-84
2022/06/18 11:26:49;;;;;;;1.70;1.58;;;;;;;;;;5131464;28;20034;-87
2022/06/18 11:29:32;;;;;;;2.22;1.70;;;;;;;;;;5115228;28;20023;-87
2022/06/18 11:32:00;;;;;;;2.08;1.88;;;;;;;;;;5113766;28;20023;-85
2022/06/18 11:34:28;;;;;;;1.90;1.77;;;;;;;;;;5114772;28;20023;-85
2022/06/18 11:36:58;;;;;;;2.05;1.88;;;;;;;;;;5133114;28;20019;-86
2022/06/18 11:39:35;;;;;;;2.72;2.00;;;;;;;;;;5134938;27;20079;-84
2022/06/18 11:42:11;;;;;;;3.30;2.30;;;;;;;;;;5137765;27;20422;-85
2022/06/18 11:45:06;;;;;;;2.40;2.17;;;;;;;;;;5137183;27;20079;-88
2022/06/18 11:47:55;;;;;;;3.47;2.20;;;;;;;;;;5106809;27;20035;-85
2022/06/18 11:50:30;;;;;;;2.47;2.28;;;;;;;;;;5071158;27;20031;-85
2022/06/18 11:53:07;;;;;;;2.28;2.05;;;;;;;;;;5118255;27;20110;-85
2022/06/18 11:55:39;;;;;;;2.92;2.53;;;;;;;;;;5136413;27;20019;-86
2022/06/18 11:58:17;;;;;;;2.15;1.83;;;;;;;;;;5138062;27;20023;-86
2022/06/18 12:00:50;;;;;;;2.72;2.33;;;;;;;;;;5137741;27;20023;-85
2022/06/18 12:03:42;;;;;;;2.20;2.00;;;;;;;;;;5137710;27;20151;-86
2022/06/18 12:06:20;;;;;;;2.00;1.90;;;;;;;;;;5135604;27;20151;-87
2022/06/18 12:08:47;;;;;;;1.80;1.70;;;;;;;;;;5136455;27;20027;-86
2022/06/18 12:11:27;;;;;;;2.97;1.60;;;;;;;;;;5138059;27;20027;-89
2022/06/18 12:14:12;;;;;;;1.80;1.42;;;;;;;;;;5137361;27;20494;-86
2022/06/18 12:17:00;;;;;;;1.38;1.27;;;;;;;;;;5133337;27;20071;-89
2022/06/18 12:20:13;;;;;;;1.35;1.23;;;;;;;;;;5118922;27;20035;-87
2022/06/18 12:22:45;;;;;;;1.33;1.20;;;;;;;;;;5127210;27;20475;-86
2022/06/18 12:25:22;;;;;;;1.25;1.15;;;;;;;;;;5133874;27;20019;-90
2022/06/18 12:28:02;;;;;;;1.10;1.00;;;;;;;;;;5118447;27;20030;-87
2022/06/18 12:30:39;;;;;;;1.40;1.10;;;;;;;;;;5134141;27;20084;-87
2022/06/18 12:33:18;;;;;;;3.83;1.15;;;;;;;;;;5135609;27;20114;-86
2022/06/18 12:36:11;;;;;;;0.80;0.80;;;;;;;;;;5138991;27;20058;-85
2022/06/18 12:39:13;;;;;;;0.88;0.88;;;;;;;;;;5136365;27;20466;-85
2022/06/18 12:41:51;;;;;;;0.95;0.80;;;;;;;;;;5134171;27;20015;-87
2022/06/18 12:44:22;;;;;;;0.70;0.70;;;;;;;;;;5117016;27;20023;-83
2022/06/18 12:47:14;;;;;;;1.13;1.00;;;;;;;;;;5135431;27;20046;-86
2022/06/18 12:50:10;;;;;;;1.50;1.10;;;;;;;;;;5135540;27;20027;-86
2022/06/18 12:53:17;;;;;;;0.90;0.90;;;;;;;;;;5134652;27;20019;-85
2022/06/18 12:55:56;;;;;;;0.88;0.80;;;;;;;;;;5030376;28;20049;-87
2022/06/18 12:58:47;;;;;;;1.40;1.10;;;;;;;;;;5033951;28;20389;-85
2022/06/18 13:01:19;;;;;;;1.48;0.82;;;;;;;;;;5105051;27;20110;-85
2022/06/18 13:04:20;;;;;;;1.45;0.93;;;;;;;;;;5131944;27;20079;-86
2022/06/18 13:07:07;;;;;;;1.13;1.02;;;;;;;;;;5134256;27;20064;-90
2022/06/18 13:10:03;;;;;;;0.80;0.80;;;;;;;;;;5134583;27;20360;-86
2022/06/18 13:12:57;;;;;;;0.82;0.82;;;;;;;;;;5133819;27;20026;-85
2022/06/18 13:15:28;;;;;;;1.33;0.60;;;;;;;;;;5133491;27;20042;-86
2022/06/18 13:18:36;;;;;;;0.50;0.50;;;;;;;;;;5133175;27;20080;-87
2022/06/18 13:21:07;;;;;;;0.98;0.70;;;;;;;;;;5045458;28;20473;-86
2022/06/18 13:29:09;;;;;;;0.70;0.70;;;;;;;;;;5132156;27;20038;-87
2022/06/18 13:31:58;;;;;;;0.70;0.70;;;;;;;;;;5134474;27;20023;-90
2022/06/18 13:34:51;;;;;;;0.40;0.35;;;;;;;;;;5113288;27;20070;-86
2022/06/18 13:37:48;;;;;;;0.82;0.57;;;;;;;;;;5133275;27;20433;-86
2022/06/18 13:40:17;;;;;;;0.60;0.60;;;;;;;;;;5113018;27;20038;-87
2022/06/18 13:43:11;;;;;;;0.77;0.50;;;;;;;;;;5133520;27;20023;-87
2022/06/18 13:45:48;;;;;;;0.60;0.50;;;;;;;;;;5130008;27;20039;-87
2022/06/18 13:48:30;;;;;;;0.40;0.40;;;;;;;;;;5128939;27;20084;-86
2022/06/18 13:50:55;;;;;;;0.82;0.60;;;;;;;;;;5128817;27;20547;-86
2022/06/18 13:53:31;;;;;;;0.65;0.50;;;;;;;;;;5132697;27;20106;-85
2022/06/18 13:55:57;;;;;;;0.98;0.65;;;;;;;;;;5124582;27;20379;-87
2022/06/18 13:58:28;;;;;;;0.60;0.50;;;;;;;;;;5112894;27;20027;-86
2022/06/18 14:01:12;;;;;;;0.50;0.50;;;;;;;;;;5127423;27;20046;-86
2022/06/18 14:03:42;;;;;;;0.50;0.50;;;;;;;;;;5131936;27;20483;-88
2022/06/18 14:06:09;;;;;;;1.42;0.57;;;;;;;;;;5132851;27;20376;-85
2022/06/18 14:08:50;;;;;;;0.52;0.50;;;;;;;;;;5132863;27;20436;-85
2022/06/18 14:11:48;;;;;;;0.68;0.68;;;;;;;;;;5114104;27;20039;-88
2022/06/18 14:14:43;;;;;;;0.50;0.50;;;;;;;;;;5121276;27;20068;-85
2022/06/18 14:17:17;;;;;;;0.63;0.50;;;;;;;;;;5126938;27;20038;-87
2022/06/18 14:19:55;;;;;;;0.52;0.50;;;;;;;;;;5129264;27;20533;-87
2022/06/18 14:22:27;;;;;;;0.40;0.40;;;;;;;;;;5123932;27;20045;-85
2022/06/18 14:25:04;;;;;;;0.40;0.40;;;;;;;;;;5124088;27;20088;-86
2022/06/18 14:27:51;;;;;;;0.50;0.50;;;;;;;;;;5129923;27;20095;-86
2022/06/18 14:30:32;;;;;;;0.75;0.45;;;;;;;;;;5126625;27;20401;-85
2022/06/18 14:33:08;;;;;;;0.60;0.50;;;;;;;;;;5106367;27;20026;-86
2022/06/18 14:35:34;;;;;;;1.00;0.68;;;;;;;;;;5124761;27;20019;-87
2022/06/18 14:38:04;;;;;;;1.17;0.82;;;;;;;;;;5103892;28;20116;-85
2022/06/18 14:40:31;;;;;;;;;;;;;;;;;;5109329;28;20041;-87
2022/06/18 14:43:03;;;;;;;0.70;0.65;;;;;;;;;;5122448;27;19918;-86
2022/06/18 14:45:38;;;;;;;0.88;0.65;;;;;;;;;;5109170;28;20034;-87
2022/06/18 14:48:03;;;;;;;0.65;0.60;;;;;;;;;;5092741;28;20023;-84
2022/06/18 14:50:53;;;;;;;1.13;0.73;;;;;;;;;;5104897;28;20097;-85
2022/06/18 14:53:48;;;;;;;0.60;0.60;;;;;;;;;;5110251;28;20023;-84
2022/06/18 14:56:47;;;;;;;1.08;0.60;;;;;;;;;;5108147;28;20067;-85
2022/06/18 14:59:36;;;;;;;1.20;0.70;;;;;;;;;;5107183;28;20503;-83
2022/06/18 15:02:17;;;;;;;0.70;0.70;;;;;;;;;;5104065;28;20024;-85
2022/06/18 15:04:57;;;;;;;0.80;0.80;;;;;;;;;;5105226;28;20028;-85
2022/06/18 15:07:31;;;;;;;0.80;0.75;;;;;;;;;;5089900;28;20050;-84
2022/06/18 15:10:07;;;;;;;0.80;0.60;;;;;;;;;;5107149;28;20356;-85
2022/06/18 15:12:36;;;;;;;0.60;0.60;;;;;;;;;;5109301;28;20494;-85
2022/06/18 15:15:05;;;;;;;0.90;0.52;;;;;;;;;;5110225;28;20028;-85
2022/06/18 15:17:47;;;;;;;1.00;0.90;;;;;;;;;;5088605;28;20032;-85
2022/06/18 15:20:38;;;;;;;1.85;0.80;;;;;;;;;;5108506;28;20261;-89
2022/06/18 15:23:03;;;;;;;0.68;0.60;;;;;;;;;;5107157;28;20027;-84
2022/06/18 15:25:31;;;;;;;1.50;0.60;;;;;;;;;;5089771;28;20035;-85
2022/06/18 15:28:02;;;;;;;0.80;0.80;;;;;;;;;;5106377;28;20030;-84
2022/06/18 15:30:49;;;;;;;0.70;0.70;;;;;;;;;;5090665;28;20038;-84
2022/06/18 15:33:14;;;;;;;0.93;0.75;;;;;;;;;;5086722;28;20387;-84
2022/06/18 15:35:42;;;;;;;0.70;0.60;;;;;;;;;;5105367;28;20030;-85
2022/06/18 15:38:54;;;;;;;0.90;0.80;;;;;;;;;;5107164;28;20051;-86